Terminal Aerodrome Forecast
Issued by NWS

Current Version | Previous Version | Graphics & Text | Print | Product List | Glossary On
Versions: 1 2 3 4 5 6 7 8 9 10 11 12 13 14 15 16 17 18 19 20 21 22 23 24 25 26 27 28 29 30 31 32
000
FTUS41 KRNK 300540
TAFLWB
TAF
KLWB 300540Z 3006/3106 00000KT 4SM BR BKN200
     FM300800 00000KT 2SM BR FEW001 BKN200
     FM300900 00000KT 1/4SM FG OVC001
     FM301300 24003KT P6SM SCT045 BKN110
     FM302100 22004KT 6SM -SHRA BKN050
     FM310200 17001KT 6SM BR OVC050=

USA.gov is the U.S. government's official web portal to all federal, state and local government web resources and services.